createdAt,value
2022-11-04T00:02:16.020Z,10.40
2022-11-04T00:04:46.586Z,10.27
2022-11-04T00:07:32.647Z,10.24
2022-11-04T00:10:01.398Z,10.14
2022-11-04T00:12:30.053Z,10.09
2022-11-04T00:15:00.305Z,10.06
2022-11-04T00:17:28.844Z,10.04
2022-11-04T00:20:16.603Z,10.13
2022-11-04T00:23:06.353Z,10.14
2022-11-04T00:25:53.593Z,10.06
2022-11-04T00:31:31.992Z,10.07
2022-11-04T00:34:00.901Z,9.95
2022-11-04T00:36:29.567Z,9.83
2022-11-04T00:38:58.301Z,9.83
2022-11-04T00:41:27.572Z,9.87
2022-11-04T00:44:00.744Z,9.84
2022-11-04T00:46:34.886Z,9.76
2022-11-04T00:49:03.699Z,9.64
2022-11-04T00:51:32.423Z,9.55
2022-11-04T00:54:01.130Z,9.52
2022-11-04T00:56:29.729Z,9.46
2022-11-04T00:59:02.680Z,9.44
2022-11-04T01:01:31.865Z,9.34
2022-11-04T01:04:03.348Z,9.28
2022-11-04T01:06:31.946Z,9.23
2022-11-04T01:09:06.957Z,9.20
2022-11-04T01:11:35.929Z,9.15
2022-11-04T01:14:04.566Z,9.14
2022-11-04T01:16:33.562Z,9.22
2022-11-04T01:19:03.383Z,9.24
2022-11-04T01:21:32.632Z,9.30
2022-11-04T01:24:01.699Z,9.26
2022-11-04T01:26:30.662Z,9.28
2022-11-04T01:29:03.964Z,9.25
2022-11-04T01:31:33.281Z,9.10
2022-11-04T01:34:01.926Z,9.04
2022-11-04T01:36:30.613Z,8.98
2022-11-04T01:38:59.626Z,8.95
2022-11-04T01:41:31.048Z,9.02
2022-11-04T01:44:02.570Z,9.01
2022-11-04T01:46:43.532Z,9.02
2022-11-04T01:49:21.140Z,9.03
2022-11-04T01:51:52.598Z,8.88
2022-11-04T01:54:21.745Z,8.95
2022-11-04T01:56:52.778Z,8.90
2022-11-04T01:59:24.338Z,8.89
2022-11-04T02:01:54.466Z,8.81
2022-11-04T02:04:26.804Z,8.72
2022-11-04T02:07:05.858Z,8.66
2022-11-04T02:09:36.653Z,8.66
2022-11-04T02:12:23.213Z,8.72
2022-11-04T02:14:53.278Z,8.64
2022-11-04T02:17:27.693Z,8.67
2022-11-04T02:20:01.822Z,8.56
2022-11-04T02:22:49.849Z,8.63
2022-11-04T02:25:39.258Z,8.51
2022-11-04T02:28:35.628Z,8.46
2022-11-04T02:31:22.131Z,8.37
2022-11-04T02:33:59.819Z,8.37
2022-11-04T02:36:49.260Z,8.46
2022-11-04T02:39:41.459Z,8.33
2022-11-04T02:42:17.971Z,8.26
2022-11-04T02:44:51.483Z,8.34
2022-11-04T02:47:45.960Z,8.30
2022-11-04T02:50:26.992Z,8.21
2022-11-04T02:53:07.825Z,8.21
2022-11-04T02:55:42.924Z,8.13
2022-11-04T02:58:17.641Z,8.07
2022-11-04T03:00:51.206Z,8.02
2022-11-04T03:03:25.328Z,8.03
2022-11-04T03:05:56.886Z,8.00
2022-11-04T03:08:37.138Z,8.04
2022-11-04T03:11:11.236Z,8.03
2022-11-04T03:13:57.829Z,7.59
2022-11-04T03:16:29.415Z,8.02
2022-11-04T03:19:03.734Z,8.08
2022-11-04T03:21:34.974Z,8.13
2022-11-04T03:24:04.919Z,8.10
2022-11-04T03:26:47.965Z,8.08
2022-11-04T03:29:22.307Z,7.94
2022-11-04T03:32:18.047Z,7.83
2022-11-04T03:34:48.445Z,7.76
2022-11-04T03:37:17.149Z,7.72
2022-11-04T03:39:46.063Z,7.69
2022-11-04T03:42:23.450Z,7.60
2022-11-04T03:44:54.913Z,7.64
2022-11-04T03:47:36.455Z,7.60
2022-11-04T03:50:14.284Z,7.60
2022-11-04T03:52:46.573Z,7.68
2022-11-04T03:55:18.619Z,7.64
2022-11-04T03:58:11.672Z,7.61
2022-11-04T04:00:49.243Z,7.59
2022-11-04T04:03:21.148Z,7.55
2022-11-04T04:05:55.395Z,7.66
2022-11-04T04:09:00.093Z,7.61
2022-11-04T04:11:37.409Z,7.55
2022-11-04T04:14:09.013Z,7.54
2022-11-04T04:16:46.666Z,7.60
2022-11-04T04:19:18.354Z,7.49
2022-11-04T04:21:55.939Z,7.49
2022-11-04T04:24:45.445Z,7.32
2022-11-04T04:27:33.980Z,7.23
2022-11-04T04:30:05.553Z,7.29
2022-11-04T04:32:58.236Z,7.24
2022-11-04T04:35:44.985Z,7.20
2022-11-04T04:38:40.592Z,7.16
2022-11-04T04:41:32.726Z,7.27
2022-11-04T04:44:18.088Z,7.25
2022-11-04T04:46:49.255Z,7.17
2022-11-04T04:49:18.189Z,7.18
2022-11-04T04:51:49.117Z,7.15
2022-11-04T04:54:17.757Z,7.15
2022-11-04T04:56:46.629Z,7.17
2022-11-04T04:59:15.155Z,7.08
2022-11-04T05:01:43.965Z,7.18
2022-11-04T05:04:13.015Z,7.20
2022-11-04T05:06:41.661Z,7.13
2022-11-04T05:09:10.247Z,7.20
2022-11-04T05:11:38.920Z,7.18
2022-11-04T05:14:07.638Z,7.22
2022-11-04T05:16:40.799Z,7.20
2022-11-04T05:19:07.977Z,7.24
2022-11-04T05:21:36.598Z,7.25
2022-11-04T05:24:05.229Z,7.34
2022-11-04T05:26:33.831Z,7.51
2022-11-04T05:29:04.674Z,7.56
2022-11-04T05:31:33.401Z,7.54
2022-11-04T05:34:01.997Z,7.17
2022-11-04T05:36:30.713Z,7.66
2022-11-04T05:38:59.318Z,7.75
2022-11-04T05:41:28.172Z,7.82
2022-11-04T05:43:58.985Z,7.96
2022-11-04T05:46:29.706Z,7.94
2022-11-04T05:48:59.659Z,7.95
2022-11-04T05:51:31.446Z,8.02
2022-11-04T05:54:02.854Z,7.92
2022-11-04T05:56:31.495Z,8.10
2022-11-04T05:59:00.401Z,8.17
2022-11-04T06:01:36.012Z,8.31
2022-11-04T06:04:07.299Z,8.49
2022-11-04T06:06:42.693Z,8.57
2022-11-04T06:09:11.804Z,8.61
2022-11-04T06:11:52.743Z,8.75
2022-11-04T06:14:21.769Z,8.79
2022-11-04T06:16:52.092Z,8.91
2022-11-04T06:19:20.992Z,8.90
2022-11-04T06:21:51.194Z,9.00
2022-11-04T06:24:25.727Z,9.10
2022-11-04T06:27:22.413Z,9.13
2022-11-04T06:29:53.334Z,9.29
2022-11-04T06:35:39.122Z,9.57
2022-11-04T06:38:18.940Z,9.74
2022-11-04T06:40:49.415Z,9.76
2022-11-04T06:43:25.944Z,9.96
2022-11-04T06:46:00.534Z,10.13
2022-11-04T06:48:35.679Z,10.22
2022-11-04T06:51:06.459Z,10.26
2022-11-04T06:53:37.016Z,10.36
2022-11-04T06:56:10.483Z,10.49
2022-11-04T06:58:41.122Z,10.54
2022-11-04T07:01:14.761Z,10.73
2022-11-04T07:03:50.169Z,10.24
2022-11-04T07:06:19.650Z,10.86
2022-11-04T07:08:57.410Z,11.04
2022-11-04T07:11:36.454Z,11.13
2022-11-04T07:14:41.487Z,11.06
2022-11-04T07:16:43.586Z,11.28
2022-11-04T07:19:14.759Z,11.47
2022-11-04T07:21:57.735Z,11.62
2022-11-04T07:24:21.782Z,11.68
2022-11-04T07:26:53.785Z,11.76
2022-11-04T07:29:28.117Z,11.79
2022-11-04T07:32:06.474Z,11.94
2022-11-04T07:34:41.617Z,12.12
2022-11-04T07:37:18.271Z,12.16
2022-11-04T07:39:51.692Z,12.42
2022-11-04T07:42:23.516Z,12.63
2022-11-04T07:44:56.432Z,12.77
2022-11-04T07:47:22.830Z,12.78
2022-11-04T07:49:51.783Z,12.58
2022-11-04T07:52:27.679Z,12.55
2022-11-04T07:54:58.028Z,12.81
2022-11-04T07:57:43.690Z,13.11
2022-11-04T08:00:14.942Z,13.23
2022-11-04T08:02:47.592Z,13.33
2022-11-04T08:05:18.710Z,13.29
2022-11-04T08:07:47.538Z,13.30
2022-11-04T08:10:16.246Z,13.27
2022-11-04T08:12:57.188Z,13.48
2022-11-04T08:15:27.802Z,13.47
2022-11-04T08:17:58.881Z,13.24
2022-11-04T08:20:38.219Z,13.93
2022-11-04T08:23:08.286Z,14.11
2022-11-04T08:25:37.382Z,14.08
2022-11-04T08:28:06.577Z,14.25
2022-11-04T08:30:39.615Z,14.41
2022-11-04T08:36:04.755Z,14.12
2022-11-04T08:38:35.012Z,14.49
2022-11-04T08:41:09.782Z,14.58
2022-11-04T08:43:44.567Z,14.72
2022-11-04T08:46:14.184Z,14.83
2022-11-04T08:48:45.120Z,14.53
2022-11-04T08:51:39.306Z,14.73
2022-11-04T08:54:08.649Z,14.76
2022-11-04T08:56:39.930Z,14.50
2022-11-04T08:59:10.882Z,14.90
2022-11-04T09:01:40.297Z,14.84
2022-11-04T09:04:21.791Z,15.09
2022-11-04T09:06:52.285Z,14.98
2022-11-04T09:09:24.392Z,15.18
2022-11-04T09:11:53.989Z,15.40
2022-11-04T09:14:24.049Z,15.39
2022-11-04T09:16:59.592Z,15.59
2022-11-04T09:19:28.071Z,15.75
2022-11-04T09:21:58.417Z,15.62
2022-11-04T09:24:31.752Z,15.93
2022-11-04T09:27:01.315Z,16.04
2022-11-04T09:29:31.849Z,16.12
2022-11-04T09:32:03.464Z,15.97
2022-11-04T09:34:34.046Z,16.09
2022-11-04T09:37:04.183Z,16.40
2022-11-04T09:42:46.734Z,16.80
2022-11-04T09:45:23.077Z,17.06
2022-11-04T09:47:58.873Z,16.25
2022-11-04T09:50:30.549Z,16.46
2022-11-04T09:53:06.715Z,16.98
2022-11-04T09:55:43.665Z,17.17
2022-11-04T09:58:14.941Z,17.34
2022-11-04T10:10:12.414Z,18.10
2022-11-04T10:12:46.958Z,17.87
2022-11-04T10:15:38.939Z,17.93
2022-11-04T10:18:29.756Z,18.00
2022-11-04T10:29:51.218Z,17.50
2022-11-04T10:32:59.181Z,17.41
2022-11-04T10:46:23.880Z,17.61
2022-11-04T10:58:34.334Z,17.83
2022-11-04T11:03:57.154Z,17.64
2022-11-04T11:13:06.711Z,17.78
2022-11-04T12:35:46.846Z,18.27
2022-11-04T13:10:09.547Z,18.76
2022-11-04T13:12:51.299Z,18.68
2022-11-04T14:00:43.100Z,17.86
2022-11-04T14:12:41.986Z,17.63
2022-11-04T14:33:56.877Z,17.41
2022-11-04T14:39:49.746Z,17.20
2022-11-04T14:42:21.516Z,17.01
2022-11-04T14:44:54.235Z,16.94
2022-11-04T14:47:45.237Z,16.92
2022-11-04T14:50:37.757Z,16.83
2022-11-04T14:53:20.349Z,16.68
2022-11-04T14:56:04.086Z,16.66
2022-11-04T15:43:51.620Z,14.57
2022-11-04T15:58:49.877Z,14.38
2022-11-04T16:01:26.446Z,14.38
2022-11-04T16:04:07.874Z,14.38
2022-11-04T16:06:39.605Z,14.35
2022-11-04T16:09:23.171Z,14.30
2022-11-04T16:12:13.364Z,14.29
2022-11-04T16:18:29.084Z,14.08
2022-11-04T16:39:08.961Z,13.48
2022-11-04T16:41:48.003Z,13.41
2022-11-04T16:51:06.396Z,13.20
2022-11-04T16:53:53.436Z,13.17
2022-11-04T17:14:54.138Z,12.98
2022-11-04T17:17:35.082Z,13.00
2022-11-04T17:33:55.291Z,12.83
2022-11-04T18:22:55.566Z,12.63
2022-11-04T18:25:27.217Z,12.55
2022-11-04T18:27:57.795Z,12.49
2022-11-04T18:30:27.635Z,12.51
2022-11-04T18:42:34.881Z,12.18
2022-11-04T18:51:55.873Z,12.24
2022-11-04T18:57:04.403Z,12.25
2022-11-04T19:00:17.484Z,12.26
2022-11-04T19:02:50.878Z,12.32
2022-11-04T19:05:20.119Z,12.24
2022-11-04T19:08:00.798Z,12.28
2022-11-04T19:11:01.613Z,12.32
2022-11-04T19:13:31.822Z,12.17
2022-11-04T19:19:23.586Z,12.07
2022-11-04T19:25:34.139Z,12.08
2022-11-04T19:34:41.492Z,11.91
2022-11-04T19:37:14.870Z,11.93
2022-11-04T19:39:44.184Z,12.06
2022-11-04T19:46:10.636Z,11.98
2022-11-04T19:48:43.984Z,11.88
2022-11-04T19:52:08.907Z,11.95
2022-11-04T20:06:28.279Z,11.54
2022-11-04T20:09:07.869Z,11.42
2022-11-04T20:14:36.131Z,11.44
2022-11-04T20:20:01.225Z,11.71
2022-11-04T20:22:33.863Z,11.71
2022-11-04T20:25:10.671Z,11.87
2022-11-04T20:27:39.669Z,11.74
2022-11-04T20:30:10.461Z,11.82
2022-11-04T20:32:49.546Z,11.76
2022-11-04T20:35:24.668Z,11.58
2022-11-04T20:38:03.587Z,11.43
2022-11-04T20:40:35.346Z,11.31
2022-11-04T20:43:08.043Z,11.23
2022-11-04T20:49:06.017Z,11.15
2022-11-04T20:51:38.986Z,11.03
2022-11-04T20:54:23.258Z,11.04
2022-11-04T20:56:54.227Z,11.04
2022-11-04T21:03:10.615Z,11.03
2022-11-04T21:05:40.019Z,11.13
2022-11-04T21:08:09.119Z,11.03
2022-11-04T21:10:39.776Z,10.93
2022-11-04T21:13:15.847Z,10.87
2022-11-04T21:15:45.079Z,10.92
2022-11-04T21:18:14.506Z,11.05
2022-11-04T21:20:45.363Z,11.14
2022-11-04T21:23:18.232Z,11.10
2022-11-04T21:26:06.178Z,11.16
2022-11-04T21:28:34.964Z,11.19
2022-11-04T21:31:09.229Z,11.13
2022-11-04T21:33:41.671Z,11.11
2022-11-04T21:36:14.451Z,11.14
2022-11-04T21:38:45.527Z,11.22
2022-11-04T21:41:17.010Z,11.22
2022-11-04T21:43:52.018Z,11.20
2022-11-04T21:46:26.856Z,11.16
2022-11-04T21:48:59.789Z,11.29
2022-11-04T21:51:43.906Z,11.26
2022-11-04T21:54:10.519Z,11.10
2022-11-04T21:56:39.287Z,11.03
2022-11-04T21:59:08.086Z,11.04
2022-11-04T22:01:37.131Z,11.02
2022-11-04T22:04:05.944Z,10.96
2022-11-04T22:06:35.827Z,10.94
2022-11-04T22:09:07.098Z,10.92
2022-11-04T22:11:39.896Z,10.90
2022-11-04T22:14:12.982Z,10.80
2022-11-04T22:16:42.045Z,10.76
2022-11-04T22:19:13.808Z,10.93
2022-11-04T22:21:44.714Z,10.94
2022-11-04T22:24:15.504Z,10.89
2022-11-04T22:26:44.329Z,10.95
2022-11-04T22:29:15.007Z,10.95
2022-11-04T22:31:44.713Z,11.02
2022-11-04T22:34:14.928Z,11.14
2022-11-04T22:36:45.268Z,11.19
2022-11-04T22:39:17.089Z,11.26
2022-11-04T22:41:48.099Z,11.26
2022-11-04T22:44:19.751Z,11.23
2022-11-04T22:46:48.428Z,11.18
2022-11-04T22:49:19.731Z,11.15
2022-11-04T22:51:48.324Z,11.15
2022-11-04T22:54:18.556Z,11.22
2022-11-04T22:56:47.217Z,11.18
2022-11-04T22:59:15.911Z,11.16
2022-11-04T23:01:44.670Z,11.05
2022-11-04T23:04:14.004Z,11.06
2022-11-04T23:06:46.873Z,10.90
2022-11-04T23:09:15.559Z,10.79
2022-11-04T23:12:02.944Z,10.76
2022-11-04T23:14:44.886Z,10.81
2022-11-04T23:17:36.793Z,10.87
2022-11-04T23:20:08.398Z,10.94
2022-11-04T23:22:55.277Z,10.94
2022-11-04T23:25:24.467Z,10.74
2022-11-04T23:28:09.096Z,10.76
2022-11-04T23:30:46.431Z,10.72
2022-11-04T23:33:16.299Z,10.77
2022-11-04T23:36:05.326Z,10.64
2022-11-04T23:38:35.595Z,10.64
2022-11-04T23:41:25.003Z,10.37
2022-11-04T23:44:03.904Z,10.27
2022-11-04T23:46:50.056Z,10.30
2022-11-04T23:49:38.557Z,10.25
2022-11-04T23:52:24.639Z,10.12
2022-11-04T23:55:11.011Z,10.18
2022-11-04T23:58:02.773Z,10.02
